createdAt,value
2024-01-05T00:01:52.798Z,13.98
2024-01-05T00:04:19.579Z,17.88
2024-01-05T00:06:46.597Z,13.07
2024-01-05T00:09:13.655Z,20.95
2024-01-05T00:11:40.213Z,16.83
2024-01-05T00:14:06.805Z,17.70
2024-01-05T00:16:33.464Z,15.45
2024-01-05T00:19:00.359Z,23.00
2024-01-05T00:21:28.426Z,18.27
2024-01-05T00:23:56.782Z,13.50
2024-01-05T00:26:23.614Z,11.75
2024-01-05T00:28:54.324Z,16.88
2024-01-05T00:31:21.082Z,15.77
2024-01-05T00:33:48.102Z,16.38
2024-01-05T00:36:14.992Z,19.27
2024-01-05T00:38:48.072Z,20.13
2024-01-05T00:41:15.357Z,19.95
2024-01-05T00:43:42.597Z,15.52
2024-01-05T00:46:09.227Z,17.13
2024-01-05T00:48:36.034Z,18.25
2024-01-05T00:51:02.776Z,20.35
2024-01-05T00:53:29.416Z,20.10
2024-01-05T00:55:55.987Z,16.65
2024-01-05T00:58:22.610Z,14.45
2024-01-05T01:00:49.686Z,18.58
2024-01-05T01:03:16.498Z,18.65
2024-01-05T01:05:43.160Z,16.30
2024-01-05T01:08:09.819Z,23.73
2024-01-05T01:10:36.416Z,20.88
2024-01-05T01:13:03.243Z,12.50
2024-01-05T01:15:30.063Z,14.55
2024-01-05T01:17:56.842Z,17.00
2024-01-05T01:20:23.740Z,16.63
2024-01-05T01:22:50.309Z,15.85
2024-01-05T01:25:17.366Z,13.55
2024-01-05T01:27:44.000Z,17.67
2024-01-05T01:30:11.058Z,21.15
2024-01-05T01:32:38.169Z,25.95
2024-01-05T01:35:05.427Z,20.00
2024-01-05T01:37:32.087Z,23.45
2024-01-05T01:39:58.636Z,17.58
2024-01-05T01:42:25.765Z,17.23
2024-01-05T01:44:52.956Z,15.93
2024-01-05T01:47:20.309Z,21.20
2024-01-05T01:49:47.268Z,16.60
2024-01-05T01:52:14.389Z,14.05
2024-01-05T01:54:41.588Z,20.73
2024-01-05T01:57:08.471Z,14.80
2024-01-05T01:59:35.256Z,16.05
2024-01-05T02:02:01.961Z,18.88
2024-01-05T02:04:30.813Z,22.20
2024-01-05T02:06:57.766Z,17.63
2024-01-05T02:09:24.893Z,20.63
2024-01-05T02:11:51.580Z,22.63
2024-01-05T02:14:18.224Z,23.63
2024-01-05T02:16:45.185Z,14.15
2024-01-05T02:19:12.000Z,17.08
2024-01-05T02:21:43.200Z,24.33
2024-01-05T02:24:10.010Z,16.98
2024-01-05T02:26:36.757Z,22.65
2024-01-05T02:29:06.724Z,24.58
2024-01-05T02:31:33.401Z,25.55
2024-01-05T02:34:00.118Z,16.67
2024-01-05T02:36:27.490Z,18.52
2024-01-05T02:38:54.094Z,20.42
2024-01-05T02:41:20.752Z,19.60
2024-01-05T02:43:47.376Z,18.48
2024-01-05T02:46:13.967Z,20.92
2024-01-05T02:48:40.726Z,15.32
2024-01-05T02:51:07.441Z,14.93
2024-01-05T02:53:34.230Z,17.08
2024-01-05T02:56:00.854Z,17.17
2024-01-05T02:58:27.429Z,16.70
2024-01-05T03:00:54.124Z,21.70
2024-01-05T03:03:21.041Z,16.50
2024-01-05T03:05:48.191Z,14.55
2024-01-05T03:08:15.229Z,15.50
2024-01-05T03:10:41.930Z,18.65
2024-01-05T03:13:08.601Z,18.42
2024-01-05T03:15:35.319Z,14.45
2024-01-05T03:18:02.164Z,17.45
2024-01-05T03:20:28.940Z,20.75
2024-01-05T03:22:55.489Z,12.73
2024-01-05T03:25:22.189Z,14.85
2024-01-05T03:27:48.804Z,14.75
2024-01-05T03:30:15.679Z,20.67
2024-01-05T03:32:43.404Z,13.25
2024-01-05T03:35:10.139Z,16.10
2024-01-05T03:37:36.765Z,14.30
2024-01-05T03:40:03.995Z,9.88
2024-01-05T03:42:30.700Z,15.18
2024-01-05T03:44:57.476Z,48.03
2024-01-05T03:47:24.257Z,24.98
2024-01-05T03:49:51.345Z,18.10
2024-01-05T03:52:17.999Z,13.25
2024-01-05T03:54:44.576Z,16.45
2024-01-05T03:57:11.240Z,19.23
2024-01-05T03:59:37.861Z,25.60
2024-01-05T04:02:04.518Z,12.02
2024-01-05T04:04:31.222Z,18.05
2024-01-05T04:06:57.968Z,16.95
2024-01-05T04:09:24.837Z,16.00
2024-01-05T04:11:52.958Z,16.88
2024-01-05T04:14:19.725Z,14.48
2024-01-05T04:16:46.512Z,14.80
2024-01-05T04:19:13.678Z,21.80
2024-01-05T04:21:40.533Z,17.30
2024-01-05T04:24:07.147Z,19.27
2024-01-05T04:26:34.075Z,17.00
2024-01-05T04:29:01.228Z,14.52
2024-01-05T04:31:27.886Z,21.20
2024-01-05T04:33:57.658Z,17.08
2024-01-05T04:36:24.497Z,18.88
2024-01-05T04:38:51.139Z,16.10
2024-01-05T04:41:19.016Z,15.40
2024-01-05T04:43:45.781Z,18.20
2024-01-05T04:46:12.607Z,15.23
2024-01-05T04:48:39.446Z,16.40
2024-01-05T04:51:06.414Z,14.52
2024-01-05T04:53:33.006Z,13.90
2024-01-05T04:55:59.675Z,15.23
2024-01-05T04:58:26.325Z,24.13
2024-01-05T05:00:53.227Z,17.95
2024-01-05T05:03:20.041Z,22.23
2024-01-05T05:05:47.122Z,24.45
2024-01-05T05:08:15.841Z,21.60
2024-01-05T05:10:42.462Z,12.50
2024-01-05T05:13:10.410Z,16.92
2024-01-05T05:15:38.385Z,24.95
2024-01-05T05:18:05.403Z,14.60
2024-01-05T05:20:32.127Z,20.50
2024-01-05T05:22:59.057Z,24.05
2024-01-05T05:25:26.024Z,13.18
2024-01-05T05:27:52.682Z,17.77
2024-01-05T05:30:19.533Z,16.38
2024-01-05T05:32:46.314Z,21.65
2024-01-05T05:35:12.981Z,13.15
2024-01-05T05:37:39.609Z,16.25
2024-01-05T05:40:07.007Z,12.27
2024-01-05T05:42:33.624Z,11.50
2024-01-05T05:45:00.272Z,15.20
2024-01-05T05:47:26.886Z,11.93
2024-01-05T05:49:54.275Z,13.45
2024-01-05T05:52:20.902Z,14.57
2024-01-05T05:54:47.535Z,10.90
2024-01-05T05:57:14.195Z,16.33
2024-01-05T05:59:40.865Z,10.82
2024-01-05T06:02:07.447Z,13.70
2024-01-05T06:04:34.226Z,13.85
2024-01-05T06:07:01.051Z,17.33
2024-01-05T06:09:27.959Z,16.83
2024-01-05T06:11:54.661Z,14.23
2024-01-05T06:14:21.394Z,15.10
2024-01-05T06:16:48.157Z,20.65
2024-01-05T06:19:14.916Z,12.85
2024-01-05T06:21:41.821Z,11.65
2024-01-05T06:24:08.814Z,13.73
2024-01-05T06:26:35.493Z,11.73
2024-01-05T06:29:03.121Z,10.38
2024-01-05T06:31:29.953Z,16.55
2024-01-05T06:33:59.445Z,10.82
2024-01-05T06:36:28.029Z,13.27
2024-01-05T06:38:54.635Z,13.63
2024-01-05T06:41:21.290Z,12.13
2024-01-05T06:43:47.919Z,26.10
2024-01-05T06:46:14.490Z,14.43
2024-01-05T06:48:41.260Z,11.20
2024-01-05T06:51:08.164Z,7.55
2024-01-05T06:53:34.793Z,13.18
2024-01-05T06:56:01.499Z,16.02
2024-01-05T06:58:28.923Z,15.98
2024-01-05T07:00:55.689Z,7.30
2024-01-05T07:03:22.717Z,10.30
2024-01-05T07:05:49.773Z,9.50
2024-01-05T07:08:16.308Z,6.45
2024-01-05T07:10:42.964Z,9.07
2024-01-05T07:13:09.544Z,12.95
2024-01-05T07:15:36.329Z,11.38
2024-01-05T07:18:03.326Z,13.65
2024-01-05T07:20:30.115Z,8.23
2024-01-05T07:22:56.672Z,9.88
2024-01-05T07:25:23.302Z,12.00
2024-01-05T07:27:49.923Z,12.93
2024-01-05T07:30:16.683Z,8.75
2024-01-05T07:32:43.408Z,11.68
2024-01-05T07:35:12.066Z,10.20
2024-01-05T07:37:41.546Z,15.50
2024-01-05T07:40:08.829Z,13.00
2024-01-05T07:42:35.473Z,12.98
2024-01-05T07:45:02.129Z,14.77
2024-01-05T07:47:28.838Z,11.68
2024-01-05T07:49:55.450Z,12.95
2024-01-05T07:52:22.066Z,10.73
2024-01-05T07:54:48.723Z,11.65
2024-01-05T07:57:15.435Z,11.43
2024-01-05T07:59:42.127Z,10.73
2024-01-05T08:02:09.093Z,14.05
2024-01-05T08:04:36.978Z,12.77
2024-01-05T08:07:03.999Z,11.50
2024-01-05T08:09:30.811Z,12.07
2024-01-05T08:11:57.509Z,7.53
2024-01-05T08:14:24.162Z,9.75
2024-01-05T08:16:50.742Z,12.73
2024-01-05T08:19:17.481Z,14.43
2024-01-05T08:21:44.411Z,8.88
2024-01-05T08:24:11.869Z,23.30
2024-01-05T08:26:38.800Z,12.75
2024-01-05T08:29:05.695Z,8.70
2024-01-05T08:31:32.899Z,10.20
2024-01-05T08:33:59.721Z,12.20
2024-01-05T08:36:27.076Z,9.07
2024-01-05T08:38:53.843Z,11.45
2024-01-05T08:41:20.480Z,18.83
2024-01-05T08:43:47.100Z,10.13
2024-01-05T08:46:13.844Z,12.55
2024-01-05T08:48:40.938Z,12.90
2024-01-05T08:51:07.651Z,17.10
2024-01-05T08:53:34.374Z,11.38
2024-01-05T08:56:00.993Z,17.38
2024-01-05T08:58:28.175Z,11.43
2024-01-05T09:00:55.054Z,12.43
2024-01-05T09:03:21.928Z,11.07
2024-01-05T09:05:48.749Z,13.57
2024-01-05T09:08:15.361Z,11.55
2024-01-05T09:10:41.916Z,10.65
2024-01-05T09:13:08.700Z,13.50
2024-01-05T09:15:35.511Z,12.15
2024-01-05T09:18:03.980Z,13.52
2024-01-05T09:20:30.639Z,10.68
2024-01-05T09:22:57.258Z,8.82
2024-01-05T09:25:23.905Z,10.88
2024-01-05T09:27:50.503Z,8.05
2024-01-05T09:30:17.403Z,11.77
2024-01-05T09:32:44.299Z,10.48
2024-01-05T09:35:12.129Z,14.05
2024-01-05T09:37:38.902Z,8.27
2024-01-05T09:40:06.424Z,8.15
2024-01-05T09:42:34.216Z,11.93
2024-01-05T09:45:03.442Z,10.15
2024-01-05T09:47:31.065Z,10.18
2024-01-05T09:50:00.629Z,12.80
2024-01-05T09:52:27.667Z,12.05
2024-01-05T09:54:54.629Z,10.93
2024-01-05T09:57:23.253Z,9.93
2024-01-05T09:59:50.115Z,9.82
2024-01-05T10:02:25.835Z,14.82
2024-01-05T10:04:52.561Z,10.82
2024-01-05T10:07:19.420Z,13.52
2024-01-05T10:09:54.883Z,12.27
2024-01-05T10:12:21.861Z,11.23
2024-01-05T10:14:48.895Z,12.50
2024-01-05T10:17:17.024Z,15.20
2024-01-05T10:19:44.228Z,10.05
2024-01-05T10:22:12.758Z,14.48
2024-01-05T10:24:41.131Z,11.07
2024-01-05T10:27:12.354Z,10.00
2024-01-05T10:29:44.057Z,9.50
2024-01-05T10:32:18.643Z,7.80
2024-01-05T10:34:47.743Z,9.55
2024-01-05T10:39:55.540Z,13.48
2024-01-05T10:42:27.997Z,13.38
2024-01-05T10:44:56.411Z,12.55
2024-01-05T10:47:25.488Z,6.82
2024-01-05T10:49:54.117Z,9.63
2024-01-05T10:52:24.825Z,8.95
2024-01-05T10:54:53.259Z,6.47
2024-01-05T10:57:21.599Z,10.80
2024-01-05T10:59:49.325Z,8.70
2024-01-05T11:02:25.224Z,6.90
2024-01-05T11:05:13.670Z,11.10
2024-01-05T11:07:42.245Z,7.05
2024-01-05T11:10:36.818Z,8.48
2024-01-05T11:13:50.016Z,6.50
2024-01-05T11:16:19.387Z,9.23
2024-01-05T11:19:05.241Z,10.98
2024-01-05T11:21:58.115Z,9.75
2024-01-05T11:24:25.665Z,7.30
2024-01-05T11:26:55.581Z,10.95
2024-01-05T11:29:49.425Z,5.13
2024-01-05T11:32:35.324Z,7.82
2024-01-05T11:35:24.993Z,7.22
2024-01-05T11:37:52.367Z,10.55
2024-01-05T11:40:39.237Z,10.88
2024-01-05T11:43:36.845Z,6.38
2024-01-05T11:46:04.136Z,8.57
2024-01-05T11:48:38.395Z,7.20
2024-01-05T11:51:09.906Z,5.82
2024-01-05T11:53:37.299Z,11.98
2024-01-05T11:56:08.900Z,9.13
2024-01-05T11:58:40.853Z,6.88
2024-01-05T12:01:11.065Z,5.47
2024-01-05T12:03:39.575Z,7.00
2024-01-05T12:06:13.135Z,6.80
2024-01-05T12:08:41.920Z,7.20
2024-01-05T12:11:10.972Z,4.45
2024-01-05T12:13:38.902Z,5.30
2024-01-05T12:16:07.533Z,5.88
2024-01-05T12:18:43.820Z,6.20
2024-01-05T12:21:13.933Z,8.38
2024-01-05T12:23:42.349Z,5.35
2024-01-05T12:26:11.090Z,4.60
2024-01-05T12:28:39.835Z,12.95
2024-01-05T12:31:11.851Z,6.97
2024-01-05T12:33:40.528Z,10.32
2024-01-05T12:36:18.830Z,4.80
2024-01-05T12:38:46.437Z,5.07
2024-01-05T12:41:17.597Z,4.07
2024-01-05T12:43:51.997Z,6.47
2024-01-05T12:46:20.725Z,3.70
2024-01-05T12:48:47.502Z,3.47
2024-01-05T12:51:19.956Z,7.72
2024-01-05T12:53:52.070Z,10.85
2024-01-05T12:56:20.198Z,2.88
2024-01-05T12:58:48.256Z,3.95
2024-01-05T13:01:19.509Z,4.10
2024-01-05T13:03:53.536Z,8.10
2024-01-05T13:06:21.914Z,3.17
2024-01-05T13:08:49.278Z,7.32
2024-01-05T13:11:18.005Z,4.82
2024-01-05T13:13:45.024Z,5.32
2024-01-05T13:16:11.761Z,6.45
2024-01-05T13:18:38.606Z,2.67
2024-01-05T13:21:05.850Z,6.68
2024-01-05T13:23:32.934Z,3.35
2024-01-05T13:25:59.753Z,5.10
2024-01-05T13:28:26.687Z,2.97
2024-01-05T13:30:53.481Z,3.97
2024-01-05T13:33:20.445Z,2.03
2024-01-05T13:35:49.303Z,3.03
2024-01-05T13:38:15.919Z,2.38
2024-01-05T13:40:42.532Z,3.03
2024-01-05T13:43:09.337Z,1.10
2024-01-05T13:45:36.211Z,2.05
2024-01-05T13:48:04.395Z,3.55
2024-01-05T13:50:31.289Z,2.50
2024-01-05T13:53:00.049Z,3.53
2024-01-05T13:55:26.943Z,4.63
2024-01-05T13:57:53.655Z,1.95
2024-01-05T14:00:21.751Z,4.70
2024-01-05T14:02:48.582Z,3.90
2024-01-05T14:05:15.428Z,2.92
2024-01-05T14:07:42.109Z,2.10
2024-01-05T14:10:09.126Z,1.42
2024-01-05T14:12:35.759Z,2.45
2024-01-05T14:15:04.852Z,5.05
2024-01-05T14:17:31.562Z,3.00
2024-01-05T14:19:58.422Z,1.88
2024-01-05T14:22:25.200Z,3.20
2024-01-05T14:24:51.832Z,1.77
2024-01-05T14:27:18.946Z,1.20
2024-01-05T14:29:45.509Z,4.53
2024-01-05T14:32:12.155Z,1.60
2024-01-05T14:34:42.199Z,2.25
2024-01-05T14:37:09.173Z,2.63
2024-01-05T14:39:36.556Z,2.88
2024-01-05T14:42:03.437Z,3.20
2024-01-05T14:44:30.148Z,2.63
2024-01-05T14:46:57.893Z,1.63
2024-01-05T14:49:24.726Z,1.80
2024-01-05T14:51:52.012Z,5.38
2024-01-05T14:54:18.912Z,1.75
2024-01-05T14:56:46.370Z,2.42
2024-01-05T14:59:13.197Z,3.60
2024-01-05T15:01:39.941Z,1.55
2024-01-05T15:04:07.058Z,3.42
2024-01-05T15:06:33.931Z,3.45
2024-01-05T15:09:00.612Z,2.10
2024-01-05T15:11:27.329Z,1.85
2024-01-05T15:13:54.094Z,4.85
2024-01-05T15:16:20.703Z,0.80
2024-01-05T15:18:47.490Z,3.90
2024-01-05T15:21:23.753Z,3.65
2024-01-05T15:23:50.391Z,2.28
2024-01-05T15:26:17.047Z,2.40
2024-01-05T15:28:43.619Z,3.72
2024-01-05T15:31:21.152Z,2.30
2024-01-05T15:33:48.265Z,3.58
2024-01-05T15:36:17.113Z,1.33
2024-01-05T15:38:46.074Z,1.33
2024-01-05T15:41:13.397Z,2.00
2024-01-05T15:43:40.687Z,3.80
2024-01-05T15:46:09.735Z,3.75
2024-01-05T15:51:04.214Z,3.10
2024-01-05T15:53:31.648Z,4.00
2024-01-05T15:55:59.324Z,2.58
2024-01-05T15:58:26.306Z,3.17
2024-01-05T16:00:53.157Z,2.13
2024-01-05T16:03:19.920Z,3.67
2024-01-05T16:05:46.634Z,1.73
2024-01-05T16:08:14.412Z,3.60
2024-01-05T16:10:40.970Z,2.55
2024-01-05T16:13:07.787Z,6.43
2024-01-05T16:15:34.476Z,6.78
2024-01-05T16:18:01.257Z,4.82
2024-01-05T16:20:27.979Z,2.22
2024-01-05T16:22:54.690Z,3.80
2024-01-05T16:25:21.250Z,6.28
2024-01-05T16:27:48.013Z,3.58
2024-01-05T16:30:15.638Z,5.28
2024-01-05T16:32:43.633Z,2.38
2024-01-05T16:35:10.598Z,2.53
2024-01-05T16:37:38.518Z,7.95
2024-01-05T16:40:06.929Z,6.50
2024-01-05T16:42:33.680Z,3.67
2024-01-05T16:45:00.609Z,3.03
2024-01-05T16:47:27.471Z,5.22
2024-01-05T16:49:54.243Z,4.00
2024-01-05T16:52:20.995Z,7.85
2024-01-05T16:54:48.591Z,2.58
2024-01-05T16:57:15.285Z,5.32
2024-01-05T16:59:42.024Z,3.22
2024-01-05T17:02:08.737Z,3.70
2024-01-05T17:04:35.807Z,5.50
2024-01-05T17:07:02.638Z,2.60
2024-01-05T17:09:29.300Z,5.35
2024-01-05T17:11:58.105Z,4.63
2024-01-05T17:14:25.075Z,2.08
2024-01-05T17:16:51.776Z,3.13
2024-01-05T17:19:19.422Z,3.50
2024-01-05T17:21:48.685Z,4.35
2024-01-05T17:26:42.410Z,2.90
2024-01-05T17:29:09.084Z,4.53
2024-01-05T17:31:35.859Z,10.13
2024-01-05T17:34:02.940Z,2.45
2024-01-05T17:36:30.252Z,9.98
2024-01-05T17:38:57.916Z,6.80
2024-01-05T17:41:24.664Z,9.80
2024-01-05T17:43:51.242Z,2.17
2024-01-05T17:46:17.898Z,4.88
2024-01-05T17:48:44.699Z,5.45
2024-01-05T17:51:11.427Z,5.10
2024-01-05T17:53:41.125Z,4.32
2024-01-05T17:56:08.307Z,4.45
2024-01-05T17:58:34.977Z,4.00
2024-01-05T18:01:05.926Z,12.27
2024-01-05T18:03:34.919Z,4.40
2024-01-05T18:06:01.793Z,3.20
2024-01-05T18:08:29.333Z,8.52
2024-01-05T18:10:55.979Z,5.22
2024-01-05T18:13:24.262Z,3.75
2024-01-05T18:15:51.093Z,4.88
2024-01-05T18:18:18.089Z,3.47
2024-01-05T18:20:45.378Z,4.93
2024-01-05T18:23:14.156Z,6.32
2024-01-05T18:25:42.639Z,7.72
2024-01-05T18:28:09.287Z,6.50
2024-01-05T18:30:37.518Z,5.43
2024-01-05T18:33:04.791Z,9.40
2024-01-05T18:35:31.920Z,4.25
2024-01-05T18:37:58.605Z,3.90
2024-01-05T18:40:25.189Z,5.35
2024-01-05T18:42:52.050Z,2.88
2024-01-05T18:45:18.871Z,8.85
2024-01-05T18:47:45.900Z,7.57
2024-01-05T18:50:13.161Z,5.38
2024-01-05T18:52:39.726Z,6.55
2024-01-05T18:55:06.768Z,11.13
2024-01-05T18:57:33.401Z,10.13
2024-01-05T19:00:00.078Z,3.97
2024-01-05T19:02:26.764Z,4.40
2024-01-05T19:04:53.385Z,3.78
2024-01-05T19:07:20.079Z,3.85
2024-01-05T19:09:46.928Z,4.38
2024-01-05T19:12:13.774Z,5.15
2024-01-05T19:14:42.410Z,9.65
2024-01-05T19:17:10.306Z,6.57
2024-01-05T19:19:39.967Z,8.30
2024-01-05T19:22:06.782Z,8.05
2024-01-05T19:24:33.530Z,6.88
2024-01-05T19:27:00.239Z,4.90
2024-01-05T19:29:26.909Z,7.57
2024-01-05T19:31:53.501Z,4.43
2024-01-05T19:34:20.367Z,5.05
2024-01-05T19:36:47.484Z,8.05
2024-01-05T19:39:16.311Z,7.18
2024-01-05T19:41:44.238Z,7.75
2024-01-05T19:44:11.393Z,6.20
2024-01-05T19:46:38.887Z,9.27
2024-01-05T19:49:06.098Z,13.13
2024-01-05T19:51:32.916Z,7.15
2024-01-05T19:53:59.657Z,8.23
2024-01-05T19:56:26.274Z,4.47
2024-01-05T19:58:52.930Z,8.38
2024-01-05T20:01:19.822Z,6.93
2024-01-05T20:03:47.303Z,8.43
2024-01-05T20:06:14.511Z,8.73
2024-01-05T20:08:41.346Z,17.67
2024-01-05T20:11:14.156Z,7.72
2024-01-05T20:13:40.881Z,7.72
2024-01-05T20:16:07.681Z,11.20
2024-01-05T20:18:34.610Z,11.27
2024-01-05T20:21:01.282Z,14.00
2024-01-05T20:23:27.939Z,13.52
2024-01-05T20:25:54.570Z,9.82
2024-01-05T20:28:21.576Z,11.23
2024-01-05T20:30:48.327Z,8.35
2024-01-05T20:33:15.257Z,11.00
2024-01-05T20:35:42.267Z,10.05
2024-01-05T20:38:08.888Z,9.25
2024-01-05T20:40:35.609Z,9.15
2024-01-05T20:43:02.351Z,5.43
2024-01-05T20:45:29.011Z,10.05
2024-01-05T20:47:55.683Z,6.45
2024-01-05T20:50:22.548Z,7.60
2024-01-05T20:52:49.258Z,9.77
2024-01-05T20:55:15.824Z,11.13
2024-01-05T20:57:42.489Z,12.02
2024-01-05T21:00:09.734Z,11.57
2024-01-05T21:02:36.539Z,8.43
2024-01-05T21:05:03.574Z,12.43
2024-01-05T21:07:30.321Z,11.38
2024-01-05T21:09:57.006Z,10.00
2024-01-05T21:12:23.719Z,8.13
2024-01-05T21:14:50.325Z,9.52
2024-01-05T21:17:17.621Z,10.77
2024-01-05T21:19:44.292Z,8.85
2024-01-05T21:22:10.931Z,14.40
2024-01-05T21:24:48.987Z,10.52
2024-01-05T21:27:16.037Z,10.43
2024-01-05T21:29:44.771Z,13.45
2024-01-05T21:32:12.077Z,12.57
2024-01-05T21:34:42.817Z,10.30
2024-01-05T21:37:15.928Z,9.93
2024-01-05T21:39:42.693Z,6.82
2024-01-05T21:42:09.755Z,7.97
2024-01-05T21:44:36.486Z,9.60
2024-01-05T21:47:03.256Z,9.00
2024-01-05T21:49:30.183Z,9.07
2024-01-05T21:51:58.624Z,13.35
2024-01-05T21:54:28.347Z,5.03
2024-01-05T21:56:55.019Z,6.20
2024-01-05T21:59:21.908Z,6.93
2024-01-05T22:01:48.794Z,7.30
2024-01-05T22:04:16.086Z,7.32
2024-01-05T22:06:42.977Z,9.02
2024-01-05T22:09:10.122Z,9.43
2024-01-05T22:11:46.396Z,10.38
2024-01-05T22:14:14.273Z,9.85
2024-01-05T22:16:41.933Z,8.07
2024-01-05T22:19:09.585Z,10.50
2024-01-05T22:21:36.478Z,10.70
2024-01-05T22:24:03.198Z,9.15
2024-01-05T22:26:36.041Z,7.65
2024-01-05T22:29:06.544Z,9.27
2024-01-05T22:31:33.823Z,7.22
2024-01-05T22:34:00.843Z,11.23
2024-01-05T22:36:28.025Z,9.15
2024-01-05T22:38:55.086Z,8.68
2024-01-05T22:41:23.226Z,6.38
2024-01-05T22:43:50.267Z,12.07
2024-01-05T22:46:18.139Z,8.10
2024-01-05T22:48:47.410Z,9.27
2024-01-05T22:51:25.713Z,8.32
2024-01-05T22:53:52.520Z,10.00
2024-01-05T22:56:19.145Z,6.30
2024-01-05T22:58:45.882Z,10.27
2024-01-05T23:01:19.731Z,11.32
2024-01-05T23:03:48.267Z,8.02
2024-01-05T23:06:15.123Z,8.23
2024-01-05T23:08:42.146Z,9.45
2024-01-05T23:11:09.777Z,8.25
2024-01-05T23:13:37.033Z,8.88
2024-01-05T23:16:04.089Z,7.00
2024-01-05T23:18:30.978Z,9.25
2024-01-05T23:20:57.736Z,9.05
2024-01-05T23:23:24.408Z,6.57
2024-01-05T23:25:51.049Z,11.05
2024-01-05T23:28:18.245Z,8.77
2024-01-05T23:30:45.033Z,10.73
2024-01-05T23:33:11.930Z,7.35
2024-01-05T23:35:38.607Z,8.40
2024-01-05T23:38:05.225Z,5.03
2024-01-05T23:40:31.838Z,8.23
2024-01-05T23:42:58.535Z,6.13
2024-01-05T23:45:26.341Z,8.55
2024-01-05T23:47:53.098Z,9.57
2024-01-05T23:50:19.769Z,7.65
2024-01-05T23:52:46.351Z,10.35
2024-01-05T23:55:13.012Z,8.82
2024-01-05T23:57:39.625Z,7.43
